Terminal Aerodrome Forecast
Issued by NWS Pocatello, ID

Home | Current Version | Previous Version | Text Only | Print | Product List | Glossary On
Versions: 1 2 3 4 5 6 7 8 9 10 11 12 13
000
FTUS45 KPIH 290520
TAFPIH
TAF
KPIH 290520Z 2906/3006 18007KT P6SM SKC
     FM291700 26011KT P6SM VCTS BKN070CB
     FM300400 20009KT P6SM SCT070=

USA.gov is the U.S. government's official web portal to all federal, state and local government web resources and services.